Time;durP1;ratioP1;P1;durP2;ratioP2;P2;SDS_P1;SDS_P2;PMS_P1;PMS_P2;Temp;Humidity;BMP_temperature;BMP_pressure;BME280_temperature;BME280_humidity;BME280_pressure;Samples;Min_cycle;Max_cycle;Signal;HPM_P1;HPM_P2
2022/02/04 00:29:46;;;;;;;31.17;14.38;;;2.60;99.90;;;;;;20670261;28;20030;-76
2022/02/04 00:39:56;;;;;;;40.50;17.30;;;3.00;99.90;;;;;;20668283;28;20527;-75
2022/02/04 00:50:22;;;;;;;43.50;22.23;;;3.50;99.90;;;;;;20667640;28;20057;-75
2022/02/04 01:31:22;;;;;;;26.45;13.90;;;5.60;99.90;;;;;;20665348;28;20026;-75
2022/02/04 01:41:23;;;;;;;24.77;12.82;;;5.80;99.90;;;;;;20664491;28;20034;-76
2022/02/04 01:51:24;;;;;;;28.30;13.32;;;5.90;99.90;;;;;;20663845;28;20029;-76
2022/02/04 02:01:25;;;;;;;26.73;13.73;;;6.00;99.90;;;;;;20663247;28;20050;-75
2022/02/04 02:11:26;;;;;;;21.43;12.07;;;6.00;99.90;;;;;;20661604;28;20284;-75
2022/02/04 02:53:02;;;;;;;16.92;8.82;;;6.10;99.90;;;;;;20643953;28;20096;-76
2022/02/04 03:02:41;;;;;;;;;;;6.10;99.90;;;;;;20663174;28;20177;-75
2022/02/04 03:12:44;;;;;;;16.05;9.00;;;6.10;99.90;;;;;;20674696;28;19964;-75
2022/02/04 03:22:46;;;;;;;16.58;9.05;;;6.00;99.90;;;;;;20675107;28;20412;-75
2022/02/04 03:32:54;;;;;;;16.10;9.10;;;5.90;99.90;;;;;;20657250;28;20042;-76
2022/02/04 03:42:55;;;;;;;17.38;8.93;;;5.90;99.90;;;;;;20656104;28;20129;-76
2022/02/04 03:52:56;;;;;;;15.27;8.98;;;5.80;99.90;;;;;;20673040;28;20073;-75
2022/02/04 04:02:57;;;;;;;16.23;8.23;;;5.80;99.90;;;;;;20654805;28;20041;-75
2022/02/04 04:12:59;;;;;;;17.83;8.03;;;5.80;99.90;;;;;;20671405;28;20304;-76
2022/02/04 04:23:00;;;;;;;11.55;6.88;;;5.70;99.90;;;;;;20670677;28;20042;-75
2022/02/04 04:33:01;;;;;;;11.70;6.72;;;5.80;99.90;;;;;;20669949;28;20037;-75
2022/02/04 05:34:38;;;;;;;13.65;7.25;;;5.60;99.90;;;;;;20664349;28;20038;-75
2022/02/04 05:44:42;;;;;;;13.65;7.70;;;5.70;99.90;;;;;;20663077;28;20058;-75
2022/02/04 06:05:28;;;;;;;18.73;7.72;;;5.50;99.90;;;;;;20634648;28;20030;-75
2022/02/04 06:25:48;;;;;;;13.20;7.15;;;5.50;99.90;;;;;;20841758;28;20419;-79
2022/02/04 06:35:49;;;;;;;11.57;6.57;;;5.50;99.90;;;;;;20783336;28;20029;-77
2022/02/04 06:45:50;;;;;;;11.27;5.78;;;5.50;99.90;;;;;;20749252;28;20029;-78
2022/02/04 06:55:51;;;;;;;11.37;5.50;;;5.50;99.90;;;;;;20802326;28;20030;-77
2022/02/04 07:05:56;;;;;;;11.25;6.70;;;5.50;99.90;;;;;;20721373;28;20265;-77
2022/02/04 07:16:25;;;;;;;10.27;5.30;;;5.40;99.90;;;;;;20705984;28;20131;-77
2022/02/04 07:26:30;;;;;;;10.38;5.57;;;5.50;99.90;;;;;;20785936;28;20492;-78
2022/02/04 07:46:50;;;;;;;9.30;5.20;;;5.40;99.90;;;;;;20734437;28;20392;-77
2022/02/04 07:56:51;;;;;;;9.68;5.03;;;5.50;99.90;;;;;;20717710;28;20050;-77
2022/02/04 08:06:57;;;;;;;10.65;4.72;;;5.50;99.90;;;;;;20718709;28;20030;-77
2022/02/04 09:07:55;;;;;;;9.90;4.97;;;5.90;99.90;;;;;;20874417;28;20034;-78
2022/02/04 09:28:16;;;;;;;8.05;4.82;;;6.00;99.90;;;;;;20817549;28;20030;-79
2022/02/04 09:38:17;;;;;;;5.97;3.70;;;6.10;99.90;;;;;;20820505;28;20012;-79
2022/02/04 09:48:18;;;;;;;5.93;3.10;;;6.20;99.90;;;;;;20814557;28;20276;-79
2022/02/04 10:09:03;;;;;;;11.98;5.05;;;6.30;99.90;;;;;;20799586;28;20034;-77
2022/02/04 10:29:34;;;;;;;4.32;2.20;;;6.40;99.90;;;;;;20782383;28;20048;-78
2022/02/04 10:50:08;;;;;;;4.88;1.98;;;6.40;99.90;;;;;;20802494;28;20044;-78
2022/02/04 11:52:05;;;;;;;1.52;0.80;;;6.50;99.90;;;;;;20820865;28;20034;-78
2022/02/04 12:02:24;;;;;;;1.85;0.80;;;6.50;99.90;;;;;;20808361;28;20427;-79
2022/02/04 12:12:53;;;;;;;0.88;0.88;;;6.60;99.90;;;;;;20791222;23;20607;-76
2022/02/04 12:22:56;;;;;;;1.20;0.90;;;6.50;99.90;;;;;;20750907;28;20064;-76
2022/02/04 12:32:58;;;;;;;2.70;0.98;;;6.60;99.90;;;;;;20750999;28;20056;-76
2022/02/04 12:43:00;;;;;;;1.88;0.70;;;6.50;99.90;;;;;;20705700;28;20034;-76
2022/02/04 12:53:01;;;;;;;4.22;0.70;;;6.60;99.90;;;;;;20691138;28;20026;-77
2022/02/04 13:13:10;;;;;;;0.77;0.60;;;6.70;99.90;;;;;;20702612;28;20761;-76
2022/02/04 13:23:16;;;;;;;0.50;0.50;;;6.70;99.90;;;;;;20661079;28;20504;-76
2022/02/04 13:33:22;;;;;;;2.75;0.50;;;7.40;99.90;;;;;;20665368;28;20030;-76
2022/02/04 13:54:23;;;;;;;0.57;0.40;;;7.90;99.90;;;;;;20624170;28;20177;-76
2022/02/04 14:04:27;;;;;;;0.30;0.30;;;8.20;99.90;;;;;;20663158;28;20085;-75
2022/02/04 14:14:28;;;;;;;0.30;0.30;;;7.60;99.90;;;;;;20662837;28;20492;-75
2022/02/04 14:24:29;;;;;;;2.95;0.30;;;7.40;99.90;;;;;;20662530;28;20401;-75
2022/02/04 15:05:07;;;;;;;0.40;0.40;;;7.30;99.90;;;;;;20673679;28;20050;-75
2022/02/04 15:15:08;;;;;;;0.40;0.40;;;7.30;99.90;;;;;;20676407;28;20368;-75
2022/02/04 15:25:17;;;;;;;1.20;0.70;;;7.40;99.90;;;;;;20675176;28;20034;-75
2022/02/04 15:35:17;;;;;;;3.25;0.70;;;8.50;99.90;;;;;;20674652;28;20034;-76
2022/02/04 16:05:58;;;;;;;0.50;0.50;;;7.40;99.90;;;;;;20717253;28;20088;-76
2022/02/04 16:16:18;;;;;;;0.77;0.70;;;7.10;99.90;;;;;;20752611;28;20034;-75
2022/02/04 16:36:43;;;;;;;2.15;0.60;;;7.00;99.90;;;;;;20751396;28;20034;-76
2022/02/04 16:46:45;;;;;;;2.50;0.50;;;7.00;99.90;;;;;;20729222;28;20042;-76
2022/02/04 16:56:46;;;;;;;0.70;0.60;;;7.00;99.90;;;;;;20732753;28;20034;-76
2022/02/04 17:06:55;;;;;;;4.07;2.30;;;7.00;99.90;;;;;;20721968;28;20034;-77
2022/02/04 17:16:57;;;;;;;3.28;1.30;;;6.90;99.90;;;;;;20667115;28;20655;-75
2022/02/04 17:26:59;;;;;;;1.80;1.08;;;6.90;99.90;;;;;;20666905;28;20442;-76
2022/02/04 17:37:00;;;;;;;1.55;0.93;;;6.80;99.90;;;;;;20665650;28;20520;-75
2022/02/04 17:47:01;;;;;;;1.43;1.10;;;6.80;99.90;;;;;;20665621;28;20030;-75
2022/02/04 17:57:10;;;;;;;;;;;6.70;99.90;;;;;;20665430;28;20037;-75
2022/02/04 18:07:17;;;;;;;1.65;0.93;;;6.70;99.90;;;;;;20663684;28;19910;-75
2022/02/04 18:17:18;;;;;;;9.75;3.42;;;6.70;99.90;;;;;;20707765;23;20057;-75
2022/02/04 18:27:19;;;;;;;12.77;5.20;;;6.80;99.90;;;;;;20743671;28;20428;-76
2022/02/04 18:37:30;;;;;;;10.93;3.20;;;6.80;99.90;;;;;;20753587;28;20034;-75
2022/02/04 18:47:50;;;;;;;11.17;6.23;;;6.70;99.90;;;;;;20759408;28;20042;-75
2022/02/04 18:57:51;;;;;;;5.57;2.67;;;6.50;99.90;;;;;;20758354;28;20040;-75
2022/02/04 19:07:59;;;;;;;4.32;2.67;;;6.40;99.90;;;;;;20773001;28;20042;-75
2022/02/04 19:18:05;;;;;;;3.38;2.13;;;6.40;99.90;;;;;;20756820;28;20064;-76
2022/02/04 19:28:09;;;;;;;3.75;1.92;;;6.20;99.90;;;;;;20771481;28;20030;-75
2022/02/04 19:38:10;;;;;;;3.60;2.05;;;6.30;99.90;;;;;;20696798;28;20035;-76
2022/02/04 19:48:21;;;;;;;20.40;10.00;;;6.40;99.90;;;;;;20695814;28;20464;-76
2022/02/04 20:29:20;;;;;;;6.47;2.35;;;6.40;99.90;;;;;;20669051;28;20112;-76
2022/02/04 20:39:28;;;;;;;4.93;1.90;;;6.60;99.90;;;;;;20652838;28;20038;-76
2022/02/04 20:49:29;;;;;;;6.57;2.78;;;6.80;99.90;;;;;;20667882;28;20105;-75
2022/02/04 20:59:29;;;;;;;5.13;1.80;;;7.10;99.90;;;;;;20667396;28;20620;-75
2022/02/04 21:19:50;;;;;;;3.67;2.33;;;7.10;99.90;;;;;;20666507;28;20046;-76
2022/02/04 21:29:50;;;;;;;11.00;4.90;;;7.20;99.90;;;;;;20693648;28;20034;-76
2022/02/04 21:39:51;;;;;;;5.57;2.50;;;7.20;99.90;;;;;;20761679;28;20505;-76
2022/02/04 21:49:52;;;;;;;3.83;2.33;;;7.30;99.90;;;;;;20746001;28;20484;-75
2022/02/04 21:59:53;;;;;;;2.30;1.43;;;7.30;99.90;;;;;;20688408;28;20064;-76
2022/02/04 22:30:15;;;;;;;10.88;4.47;;;7.30;99.90;;;;;;20687502;28;20125;-76
2022/02/04 22:51:04;;;;;;;1.88;0.90;;;7.30;99.90;;;;;;20678415;28;20030;-76
2022/02/04 23:00:59;;;;;;;3.95;1.20;;;7.30;99.90;;;;;;20672497;28;20068;-73
2022/02/04 23:11:05;;;;;;;1.07;0.90;;;7.20;99.90;;;;;;20679346;28;20568;-76
2022/02/04 23:21:09;;;;;;;2.10;1.05;;;7.10;99.90;;;;;;20700740;28;20087;-76
2022/02/04 23:51:33;;;;;;;2.42;1.30;;;7.10;99.90;;;;;;20710498;28;20088;-76
